sensor_id;sensor_type;location;lat;lon;timestamp;P1;durP1;ratioP1;P2;durP2;ratioP2
673;SDS011;319;48.764;9.174;2023-03-01T00:00:35;12.30;;;12.00;;
673;SDS011;319;48.764;9.174;2023-03-01T00:03:02;12.37;;;12.07;;
673;SDS011;319;48.764;9.174;2023-03-01T00:05:30;9.73;;;9.53;;
673;SDS011;319;48.764;9.174;2023-03-01T00:07:58;9.40;;;9.20;;
673;SDS011;319;48.764;9.174;2023-03-01T00:10:25;10.77;;;10.47;;
673;SDS011;319;48.764;9.174;2023-03-01T00:12:52;11.70;;;11.40;;
673;SDS011;319;48.764;9.174;2023-03-01T00:15:20;11.23;;;10.93;;
673;SDS011;319;48.764;9.174;2023-03-01T00:17:47;11.83;;;11.53;;
673;SDS011;319;48.764;9.174;2023-03-01T00:20:13;11.60;;;11.30;;
673;SDS011;319;48.764;9.174;2023-03-01T00:22:40;11.70;;;11.40;;
673;SDS011;319;48.764;9.174;2023-03-01T00:25:09;10.93;;;10.63;;
673;SDS011;319;48.764;9.174;2023-03-01T00:27:35;11.80;;;11.50;;
673;SDS011;319;48.764;9.174;2023-03-01T00:30:02;12.00;;;11.70;;
673;SDS011;319;48.764;9.174;2023-03-01T00:32:30;12.00;;;11.70;;
673;SDS011;319;48.764;9.174;2023-03-01T00:34:56;12.00;;;11.70;;
673;SDS011;319;48.764;9.174;2023-03-01T00:37:23;8.90;;;8.70;;
673;SDS011;319;48.764;9.174;2023-03-01T00:39:50;9.50;;;9.30;;
673;SDS011;319;48.764;9.174;2023-03-01T00:42:18;9.27;;;9.07;;
673;SDS011;319;48.764;9.174;2023-03-01T00:44:47;8.60;;;8.40;;
673;SDS011;319;48.764;9.174;2023-03-01T00:47:14;7.93;;;7.73;;
673;SDS011;319;48.764;9.174;2023-03-01T00:49:41;7.60;;;7.40;;
673;SDS011;319;48.764;9.174;2023-03-01T00:52:07;7.90;;;7.70;;
673;SDS011;319;48.764;9.174;2023-03-01T00:54:34;7.63;;;7.43;;
673;SDS011;319;48.764;9.174;2023-03-01T00:57:01;8.87;;;8.67;;
673;SDS011;319;48.764;9.174;2023-03-01T00:59:30;8.80;;;8.60;;
673;SDS011;319;48.764;9.174;2023-03-01T01:01:56;8.83;;;8.63;;
673;SDS011;319;48.764;9.174;2023-03-01T01:04:24;10.10;;;9.90;;
673;SDS011;319;48.764;9.174;2023-03-01T01:06:50;9.80;;;9.60;;
673;SDS011;319;48.764;9.174;2023-03-01T01:09:17;12.00;;;11.70;;
673;SDS011;319;48.764;9.174;2023-03-01T01:11:44;11.43;;;11.13;;
673;SDS011;319;48.764;9.174;2023-03-01T01:14:12;11.70;;;11.40;;
673;SDS011;319;48.764;9.174;2023-03-01T01:16:40;11.67;;;11.37;;
673;SDS011;319;48.764;9.174;2023-03-01T01:19:08;11.20;;;10.90;;
673;SDS011;319;48.764;9.174;2023-03-01T01:21:36;9.40;;;9.20;;
673;SDS011;319;48.764;9.174;2023-03-01T01:24:03;9.60;;;9.40;;
673;SDS011;319;48.764;9.174;2023-03-01T01:26:32;9.00;;;8.80;;
673;SDS011;319;48.764;9.174;2023-03-01T01:29:00;8.83;;;8.63;;
673;SDS011;319;48.764;9.174;2023-03-01T01:31:28;8.13;;;7.93;;
673;SDS011;319;48.764;9.174;2023-03-01T01:33:58;8.10;;;7.90;;
673;SDS011;319;48.764;9.174;2023-03-01T01:36:26;7.53;;;7.33;;
673;SDS011;319;48.764;9.174;2023-03-01T01:38:53;8.30;;;8.10;;
673;SDS011;319;48.764;9.174;2023-03-01T01:41:20;8.20;;;8.00;;
673;SDS011;319;48.764;9.174;2023-03-01T01:43:48;8.10;;;7.90;;
673;SDS011;319;48.764;9.174;2023-03-01T01:46:19;8.70;;;8.50;;
673;SDS011;319;48.764;9.174;2023-03-01T01:48:52;8.30;;;8.10;;
673;SDS011;319;48.764;9.174;2023-03-01T01:51:24;8.00;;;7.80;;
673;SDS011;319;48.764;9.174;2023-03-01T01:53:55;8.00;;;7.80;;
673;SDS011;319;48.764;9.174;2023-03-01T01:56:27;7.97;;;7.77;;
673;SDS011;319;48.764;9.174;2023-03-01T01:58:55;8.43;;;8.23;;
673;SDS011;319;48.764;9.174;2023-03-01T02:01:22;8.20;;;8.00;;
673;SDS011;319;48.764;9.174;2023-03-01T02:03:49;8.33;;;8.13;;
673;SDS011;319;48.764;9.174;2023-03-01T02:06:20;8.10;;;7.90;;
673;SDS011;319;48.764;9.174;2023-03-01T02:08:55;8.57;;;8.37;;
673;SDS011;319;48.764;9.174;2023-03-01T02:11:25;8.27;;;8.07;;
673;SDS011;319;48.764;9.174;2023-03-01T02:13:53;8.60;;;8.40;;
673;SDS011;319;48.764;9.174;2023-03-01T02:16:21;8.70;;;8.50;;
673;SDS011;319;48.764;9.174;2023-03-01T02:18:48;8.80;;;8.60;;
673;SDS011;319;48.764;9.174;2023-03-01T02:21:19;8.97;;;8.77;;
673;SDS011;319;48.764;9.174;2023-03-01T02:24:03;9.10;;;8.90;;
673;SDS011;319;48.764;9.174;2023-03-01T02:26:39;9.20;;;9.00;;
673;SDS011;319;48.764;9.174;2023-03-01T02:29:09;9.30;;;9.10;;
673;SDS011;319;48.764;9.174;2023-03-01T02:31:36;9.20;;;9.00;;
673;SDS011;319;48.764;9.174;2023-03-01T02:34:11;9.10;;;8.90;;
673;SDS011;319;48.764;9.174;2023-03-01T02:36:40;9.30;;;9.10;;
673;SDS011;319;48.764;9.174;2023-03-01T02:39:11;9.50;;;9.30;;
673;SDS011;319;48.764;9.174;2023-03-01T02:41:44;8.90;;;8.70;;
673;SDS011;319;48.764;9.174;2023-03-01T02:44:15;9.40;;;9.20;;
673;SDS011;319;48.764;9.174;2023-03-01T02:46:43;9.33;;;9.13;;
673;SDS011;319;48.764;9.174;2023-03-01T02:49:19;9.50;;;9.30;;
673;SDS011;319;48.764;9.174;2023-03-01T02:51:51;9.60;;;9.40;;
673;SDS011;319;48.764;9.174;2023-03-01T02:54:28;9.70;;;9.50;;
673;SDS011;319;48.764;9.174;2023-03-01T02:56:58;9.50;;;9.30;;
673;SDS011;319;48.764;9.174;2023-03-01T02:59:27;9.53;;;9.33;;
673;SDS011;319;48.764;9.174;2023-03-01T03:01:57;9.13;;;8.93;;
673;SDS011;319;48.764;9.174;2023-03-01T03:04:24;9.80;;;9.60;;
673;SDS011;319;48.764;9.174;2023-03-01T03:06:50;9.90;;;9.70;;
673;SDS011;319;48.764;9.174;2023-03-01T03:09:17;9.63;;;9.43;;
673;SDS011;319;48.764;9.174;2023-03-01T03:11:45;10.10;;;9.90;;
673;SDS011;319;48.764;9.174;2023-03-01T03:14:13;9.80;;;9.60;;
673;SDS011;319;48.764;9.174;2023-03-01T03:16:43;9.70;;;9.50;;
673;SDS011;319;48.764;9.174;2023-03-01T03:19:12;9.83;;;9.63;;
673;SDS011;319;48.764;9.174;2023-03-01T03:21:39;9.90;;;9.70;;
673;SDS011;319;48.764;9.174;2023-03-01T03:24:05;9.80;;;9.60;;
673;SDS011;319;48.764;9.174;2023-03-01T03:26:32;10.17;;;9.97;;
673;SDS011;319;48.764;9.174;2023-03-01T03:28:59;9.83;;;9.63;;
673;SDS011;319;48.764;9.174;2023-03-01T03:31:26;9.40;;;9.20;;
673;SDS011;319;48.764;9.174;2023-03-01T03:33:54;10.10;;;9.90;;
673;SDS011;319;48.764;9.174;2023-03-01T03:36:22;10.00;;;9.80;;
673;SDS011;319;48.764;9.174;2023-03-01T03:38:49;9.63;;;9.43;;
673;SDS011;319;48.764;9.174;2023-03-01T03:41:16;9.80;;;9.60;;
673;SDS011;319;48.764;9.174;2023-03-01T03:43:43;10.10;;;9.90;;
673;SDS011;319;48.764;9.174;2023-03-01T03:46:10;10.47;;;10.23;;
673;SDS011;319;48.764;9.174;2023-03-01T03:48:39;11.37;;;11.07;;
673;SDS011;319;48.764;9.174;2023-03-01T03:51:11;10.50;;;10.20;;
673;SDS011;319;48.764;9.174;2023-03-01T03:53:38;10.30;;;10.10;;
673;SDS011;319;48.764;9.174;2023-03-01T03:56:06;10.17;;;9.97;;
673;SDS011;319;48.764;9.174;2023-03-01T03:58:33;9.90;;;9.70;;
673;SDS011;319;48.764;9.174;2023-03-01T04:01:00;9.67;;;9.47;;
673;SDS011;319;48.764;9.174;2023-03-01T04:03:27;9.33;;;9.13;;
673;SDS011;319;48.764;9.174;2023-03-01T04:05:56;11.00;;;10.70;;
673;SDS011;319;48.764;9.174;2023-03-01T04:08:25;10.07;;;9.87;;
673;SDS011;319;48.764;9.174;2023-03-01T04:10:55;9.10;;;8.90;;
673;SDS011;319;48.764;9.174;2023-03-01T04:13:24;11.10;;;10.80;;
673;SDS011;319;48.764;9.174;2023-03-01T04:15:52;11.00;;;10.70;;
673;SDS011;319;48.764;9.174;2023-03-01T04:18:20;10.63;;;10.33;;
673;SDS011;319;48.764;9.174;2023-03-01T04:20:49;10.97;;;10.67;;
673;SDS011;319;48.764;9.174;2023-03-01T04:23:20;10.70;;;10.40;;
673;SDS011;319;48.764;9.174;2023-03-01T04:25:49;11.10;;;10.80;;
673;SDS011;319;48.764;9.174;2023-03-01T04:28:20;10.83;;;10.53;;
673;SDS011;319;48.764;9.174;2023-03-01T04:30:49;10.80;;;10.50;;
673;SDS011;319;48.764;9.174;2023-03-01T04:33:16;11.00;;;10.70;;
673;SDS011;319;48.764;9.174;2023-03-01T04:35:44;9.43;;;9.23;;
673;SDS011;319;48.764;9.174;2023-03-01T04:38:11;12.13;;;11.83;;
673;SDS011;319;48.764;9.174;2023-03-01T04:40:37;9.77;;;9.57;;
673;SDS011;319;48.764;9.174;2023-03-01T04:43:09;9.37;;;9.17;;
673;SDS011;319;48.764;9.174;2023-03-01T04:45:36;9.40;;;9.20;;
673;SDS011;319;48.764;9.174;2023-03-01T04:48:04;11.30;;;11.00;;
673;SDS011;319;48.764;9.174;2023-03-01T04:50:31;10.50;;;10.23;;
673;SDS011;319;48.764;9.174;2023-03-01T04:52:58;10.90;;;10.60;;
673;SDS011;319;48.764;9.174;2023-03-01T04:55:25;9.87;;;9.67;;
673;SDS011;319;48.764;9.174;2023-03-01T04:57:52;11.27;;;10.97;;
673;SDS011;319;48.764;9.174;2023-03-01T05:00:21;10.53;;;10.23;;
673;SDS011;319;48.764;9.174;2023-03-01T05:02:50;10.93;;;10.63;;
673;SDS011;319;48.764;9.174;2023-03-01T05:05:23;10.77;;;10.47;;
673;SDS011;319;48.764;9.174;2023-03-01T05:07:52;9.43;;;9.23;;
673;SDS011;319;48.764;9.174;2023-03-01T05:10:20;9.40;;;9.20;;
673;SDS011;319;48.764;9.174;2023-03-01T05:12:48;11.30;;;11.00;;
673;SDS011;319;48.764;9.174;2023-03-01T05:15:17;10.10;;;9.90;;
673;SDS011;319;48.764;9.174;2023-03-01T05:17:47;9.47;;;9.27;;
673;SDS011;319;48.764;9.174;2023-03-01T05:20:14;11.10;;;10.80;;
673;SDS011;319;48.764;9.174;2023-03-01T05:22:41;11.30;;;11.00;;
673;SDS011;319;48.764;9.174;2023-03-01T05:25:08;11.53;;;11.23;;
673;SDS011;319;48.764;9.174;2023-03-01T05:27:35;10.73;;;10.43;;
673;SDS011;319;48.764;9.174;2023-03-01T05:30:03;10.47;;;10.17;;
673;SDS011;319;48.764;9.174;2023-03-01T05:32:38;9.80;;;9.60;;
673;SDS011;319;48.764;9.174;2023-03-01T05:35:11;11.40;;;11.10;;
673;SDS011;319;48.764;9.174;2023-03-01T05:37:40;11.60;;;11.30;;
673;SDS011;319;48.764;9.174;2023-03-01T05:40:08;10.77;;;10.47;;
673;SDS011;319;48.764;9.174;2023-03-01T05:42:41;8.57;;;8.37;;
673;SDS011;319;48.764;9.174;2023-03-01T05:45:11;11.07;;;10.77;;
673;SDS011;319;48.764;9.174;2023-03-01T05:47:39;11.50;;;11.20;;
673;SDS011;319;48.764;9.174;2023-03-01T05:50:08;10.90;;;10.60;;
673;SDS011;319;48.764;9.174;2023-03-01T05:52:44;9.30;;;9.10;;
673;SDS011;319;48.764;9.174;2023-03-01T05:55:11;8.00;;;7.80;;
673;SDS011;319;48.764;9.174;2023-03-01T05:57:38;9.43;;;9.23;;
673;SDS011;319;48.764;9.174;2023-03-01T06:00:07;12.00;;;11.70;;
673;SDS011;319;48.764;9.174;2023-03-01T19:20:48;9.50;;;9.30;;
